sensor_id;sensor_type;location;lat;lon;timestamp;P1;durP1;ratioP1;P2;durP2;ratioP2
29934;SDS011;19905;53.370;-6.314;2023-12-20T00:02:13;19.90;;;3.13;;
29934;SDS011;19905;53.370;-6.314;2023-12-20T00:04:42;21.55;;;3.22;;
29934;SDS011;19905;53.370;-6.314;2023-12-20T00:07:10;24.33;;;3.50;;
29934;SDS011;19905;53.370;-6.314;2023-12-20T00:09:39;19.25;;;3.00;;
29934;SDS011;19905;53.370;-6.314;2023-12-20T00:12:09;27.20;;;3.72;;
29934;SDS011;19905;53.370;-6.314;2023-12-20T00:14:40;23.80;;;3.58;;
29934;SDS011;19905;53.370;-6.314;2023-12-20T00:17:09;31.23;;;3.65;;
29934;SDS011;19905;53.370;-6.314;2023-12-20T00:24:41;22.48;;;3.40;;
29934;SDS011;19905;53.370;-6.314;2023-12-20T00:27:09;20.98;;;3.05;;
29934;SDS011;19905;53.370;-6.314;2023-12-20T00:29:40;24.35;;;2.90;;
29934;SDS011;19905;53.370;-6.314;2023-12-20T00:32:10;24.60;;;3.25;;
29934;SDS011;19905;53.370;-6.314;2023-12-20T00:34:45;24.52;;;3.72;;
29934;SDS011;19905;53.370;-6.314;2023-12-20T00:37:14;19.65;;;4.10;;
29934;SDS011;19905;53.370;-6.314;2023-12-20T00:39:45;23.70;;;3.63;;
29934;SDS011;19905;53.370;-6.314;2023-12-20T00:42:13;28.70;;;3.72;;
29934;SDS011;19905;53.370;-6.314;2023-12-20T00:44:49;26.10;;;4.07;;
29934;SDS011;19905;53.370;-6.314;2023-12-20T00:47:17;16.55;;;3.30;;
29934;SDS011;19905;53.370;-6.314;2023-12-20T00:49:46;23.05;;;3.60;;
29934;SDS011;19905;53.370;-6.314;2023-12-20T00:52:14;17.75;;;2.97;;
29934;SDS011;19905;53.370;-6.314;2023-12-20T00:54:45;25.17;;;4.18;;
29934;SDS011;19905;53.370;-6.314;2023-12-20T00:57:13;24.13;;;3.92;;
29934;SDS011;19905;53.370;-6.314;2023-12-20T00:59:43;27.17;;;3.47;;
29934;SDS011;19905;53.370;-6.314;2023-12-20T01:05:17;21.63;;;3.40;;
29934;SDS011;19905;53.370;-6.314;2023-12-20T01:07:49;23.45;;;3.45;;
29934;SDS011;19905;53.370;-6.314;2023-12-20T01:10:19;21.58;;;2.80;;
29934;SDS011;19905;53.370;-6.314;2023-12-20T01:12:49;21.67;;;3.20;;
29934;SDS011;19905;53.370;-6.314;2023-12-20T01:15:19;23.25;;;2.80;;
29934;SDS011;19905;53.370;-6.314;2023-12-20T01:17:48;20.23;;;3.25;;
29934;SDS011;19905;53.370;-6.314;2023-12-20T01:20:20;24.63;;;2.95;;
29934;SDS011;19905;53.370;-6.314;2023-12-20T01:22:50;16.10;;;2.92;;
29934;SDS011;19905;53.370;-6.314;2023-12-20T01:25:21;26.00;;;2.60;;
29934;SDS011;19905;53.370;-6.314;2023-12-20T01:27:51;17.40;;;3.15;;
29934;SDS011;19905;53.370;-6.314;2023-12-20T01:30:19;23.35;;;2.75;;
29934;SDS011;19905;53.370;-6.314;2023-12-20T01:32:49;20.52;;;3.13;;
29934;SDS011;19905;53.370;-6.314;2023-12-20T01:35:17;25.10;;;3.58;;
29934;SDS011;19905;53.370;-6.314;2023-12-20T01:37:47;17.92;;;2.80;;
29934;SDS011;19905;53.370;-6.314;2023-12-20T01:40:16;23.38;;;3.70;;
29934;SDS011;19905;53.370;-6.314;2023-12-20T01:45:17;27.67;;;3.42;;
29934;SDS011;19905;53.370;-6.314;2023-12-20T01:47:52;19.48;;;2.78;;
29934;SDS011;19905;53.370;-6.314;2023-12-20T01:50:22;21.10;;;3.05;;
29934;SDS011;19905;53.370;-6.314;2023-12-20T01:52:53;20.92;;;2.50;;
29934;SDS011;19905;53.370;-6.314;2023-12-20T01:55:25;22.25;;;3.28;;
29934;SDS011;19905;53.370;-6.314;2023-12-20T01:57:56;17.35;;;3.30;;
29934;SDS011;19905;53.370;-6.314;2023-12-20T02:00:26;21.08;;;2.53;;
29934;SDS011;19905;53.370;-6.314;2023-12-20T02:02:55;17.38;;;2.55;;
29934;SDS011;19905;53.370;-6.314;2023-12-20T02:05:25;16.77;;;2.60;;
29934;SDS011;19905;53.370;-6.314;2023-12-20T02:07:57;17.77;;;2.40;;
29934;SDS011;19905;53.370;-6.314;2023-12-20T02:10:28;18.65;;;2.75;;
29934;SDS011;19905;53.370;-6.314;2023-12-20T02:12:58;16.95;;;2.92;;
29934;SDS011;19905;53.370;-6.314;2023-12-20T02:15:26;19.10;;;3.05;;
29934;SDS011;19905;53.370;-6.314;2023-12-20T02:17:56;16.65;;;2.40;;
29934;SDS011;19905;53.370;-6.314;2023-12-20T02:20:25;16.83;;;2.53;;
29934;SDS011;19905;53.370;-6.314;2023-12-20T02:22:54;14.95;;;2.40;;
29934;SDS011;19905;53.370;-6.314;2023-12-20T02:25:24;16.83;;;2.72;;
29934;SDS011;19905;53.370;-6.314;2023-12-20T02:27:54;16.50;;;2.20;;
29934;SDS011;19905;53.370;-6.314;2023-12-20T02:30:25;19.27;;;2.60;;
29934;SDS011;19905;53.370;-6.314;2023-12-20T02:32:53;13.88;;;2.55;;
29934;SDS011;19905;53.370;-6.314;2023-12-20T02:35:22;13.05;;;2.22;;
29934;SDS011;19905;53.370;-6.314;2023-12-20T02:37:57;13.43;;;2.25;;
29934;SDS011;19905;53.370;-6.314;2023-12-20T02:40:26;14.00;;;2.22;;
29934;SDS011;19905;53.370;-6.314;2023-12-20T02:42:56;11.77;;;2.13;;
29934;SDS011;19905;53.370;-6.314;2023-12-20T02:45:26;13.20;;;2.40;;
29934;SDS011;19905;53.370;-6.314;2023-12-20T02:47:56;13.65;;;1.80;;
29934;SDS011;19905;53.370;-6.314;2023-12-20T02:50:26;20.60;;;2.40;;
29934;SDS011;19905;53.370;-6.314;2023-12-20T02:52:54;9.98;;;1.98;;
29934;SDS011;19905;53.370;-6.314;2023-12-20T02:55:26;10.43;;;1.92;;
29934;SDS011;19905;53.370;-6.314;2023-12-20T02:57:54;13.00;;;2.15;;
29934;SDS011;19905;53.370;-6.314;2023-12-20T03:00:23;14.77;;;2.38;;
29934;SDS011;19905;53.370;-6.314;2023-12-20T03:02:53;10.35;;;2.22;;
29934;SDS011;19905;53.370;-6.314;2023-12-20T03:05:23;13.38;;;1.98;;
29934;SDS011;19905;53.370;-6.314;2023-12-20T03:07:53;11.85;;;1.63;;
29934;SDS011;19905;53.370;-6.314;2023-12-20T03:10:26;10.82;;;1.60;;
29934;SDS011;19905;53.370;-6.314;2023-12-20T03:13:01;7.85;;;1.85;;
29934;SDS011;19905;53.370;-6.314;2023-12-20T03:15:30;12.45;;;2.03;;
29934;SDS011;19905;53.370;-6.314;2023-12-20T03:17:59;14.82;;;2.28;;
29934;SDS011;19905;53.370;-6.314;2023-12-20T03:20:30;18.05;;;2.35;;
29934;SDS011;19905;53.370;-6.314;2023-12-20T03:23:01;12.25;;;1.80;;
29934;SDS011;19905;53.370;-6.314;2023-12-20T03:25:31;16.70;;;1.92;;
29934;SDS011;19905;53.370;-6.314;2023-12-20T03:30:32;19.67;;;2.33;;
29934;SDS011;19905;53.370;-6.314;2023-12-20T03:33:00;13.02;;;1.80;;
29934;SDS011;19905;53.370;-6.314;2023-12-20T03:35:31;14.95;;;1.88;;
29934;SDS011;19905;53.370;-6.314;2023-12-20T03:38:05;13.32;;;1.77;;
29934;SDS011;19905;53.370;-6.314;2023-12-20T03:40:36;10.88;;;2.03;;
29934;SDS011;19905;53.370;-6.314;2023-12-20T03:48:07;17.63;;;1.90;;
29934;SDS011;19905;53.370;-6.314;2023-12-20T03:50:36;17.00;;;2.15;;
29934;SDS011;19905;53.370;-6.314;2023-12-20T03:53:04;17.23;;;1.98;;
29934;SDS011;19905;53.370;-6.314;2023-12-20T03:55:32;16.10;;;2.35;;
29934;SDS011;19905;53.370;-6.314;2023-12-20T03:58:02;14.07;;;2.10;;
29934;SDS011;19905;53.370;-6.314;2023-12-20T04:00:30;8.88;;;1.42;;
29934;SDS011;19905;53.370;-6.314;2023-12-20T04:02:59;10.75;;;1.70;;
29934;SDS011;19905;53.370;-6.314;2023-12-20T04:05:27;12.98;;;1.80;;
29934;SDS011;19905;53.370;-6.314;2023-12-20T04:07:56;10.55;;;1.52;;
29934;SDS011;19905;53.370;-6.314;2023-12-20T04:10:24;9.73;;;1.60;;
29934;SDS011;19905;53.370;-6.314;2023-12-20T04:12:53;13.95;;;1.88;;
29934;SDS011;19905;53.370;-6.314;2023-12-20T04:15:23;11.32;;;1.80;;
29934;SDS011;19905;53.370;-6.314;2023-12-20T04:17:52;13.50;;;1.52;;
29934;SDS011;19905;53.370;-6.314;2023-12-20T04:20:23;9.38;;;1.40;;
29934;SDS011;19905;53.370;-6.314;2023-12-20T04:22:52;11.93;;;1.85;;
29934;SDS011;19905;53.370;-6.314;2023-12-20T04:25:20;9.75;;;1.60;;
29934;SDS011;19905;53.370;-6.314;2023-12-20T04:27:51;9.15;;;1.58;;
29934;SDS011;19905;53.370;-6.314;2023-12-20T04:30:19;13.10;;;1.58;;
29934;SDS011;19905;53.370;-6.314;2023-12-20T04:32:50;11.73;;;1.83;;
29934;SDS011;19905;53.370;-6.314;2023-12-20T04:35:18;12.02;;;1.42;;
29934;SDS011;19905;53.370;-6.314;2023-12-20T04:37:47;11.00;;;1.60;;
29934;SDS011;19905;53.370;-6.314;2023-12-20T04:40:16;11.02;;;1.80;;
29934;SDS011;19905;53.370;-6.314;2023-12-20T04:42:45;15.13;;;2.20;;
29934;SDS011;19905;53.370;-6.314;2023-12-20T04:45:13;13.00;;;1.90;;
29934;SDS011;19905;53.370;-6.314;2023-12-20T04:47:43;13.30;;;1.70;;
29934;SDS011;19905;53.370;-6.314;2023-12-20T04:50:16;10.93;;;1.60;;
29934;SDS011;19905;53.370;-6.314;2023-12-20T04:52:44;10.02;;;1.88;;
29934;SDS011;19905;53.370;-6.314;2023-12-20T04:55:12;16.52;;;2.10;;
29934;SDS011;19905;53.370;-6.314;2023-12-20T04:57:41;14.43;;;2.33;;
29934;SDS011;19905;53.370;-6.314;2023-12-20T05:00:10;11.57;;;1.98;;
29934;SDS011;19905;53.370;-6.314;2023-12-20T05:02:39;12.38;;;1.75;;
29934;SDS011;19905;53.370;-6.314;2023-12-20T05:05:07;11.25;;;1.77;;
29934;SDS011;19905;53.370;-6.314;2023-12-20T05:07:38;10.90;;;1.83;;
29934;SDS011;19905;53.370;-6.314;2023-12-20T05:10:07;12.82;;;1.80;;
29934;SDS011;19905;53.370;-6.314;2023-12-20T05:12:36;14.63;;;1.73;;
29934;SDS011;19905;53.370;-6.314;2023-12-20T05:15:05;11.88;;;1.70;;
29934;SDS011;19905;53.370;-6.314;2023-12-20T05:17:33;14.23;;;2.55;;
29934;SDS011;19905;53.370;-6.314;2023-12-20T05:20:01;14.57;;;1.80;;
29934;SDS011;19905;53.370;-6.314;2023-12-20T05:22:30;11.00;;;1.90;;
29934;SDS011;19905;53.370;-6.314;2023-12-20T05:25:00;10.77;;;1.83;;
29934;SDS011;19905;53.370;-6.314;2023-12-20T05:27:28;20.90;;;1.92;;
29934;SDS011;19905;53.370;-6.314;2023-12-20T05:29:56;15.52;;;1.83;;
29934;SDS011;19905;53.370;-6.314;2023-12-20T05:32:25;14.57;;;1.88;;
29934;SDS011;19905;53.370;-6.314;2023-12-20T05:34:53;15.90;;;1.70;;
29934;SDS011;19905;53.370;-6.314;2023-12-20T05:37:22;11.52;;;1.60;;
29934;SDS011;19905;53.370;-6.314;2023-12-20T05:39:50;11.45;;;1.90;;
29934;SDS011;19905;53.370;-6.314;2023-12-20T05:42:20;14.23;;;2.05;;
29934;SDS011;19905;53.370;-6.314;2023-12-20T05:44:48;20.77;;;2.53;;
29934;SDS011;19905;53.370;-6.314;2023-12-20T05:47:21;16.30;;;2.25;;
29934;SDS011;19905;53.370;-6.314;2023-12-20T05:49:49;10.57;;;1.90;;
29934;SDS011;19905;53.370;-6.314;2023-12-20T05:52:17;15.90;;;2.45;;
29934;SDS011;19905;53.370;-6.314;2023-12-20T05:54:46;17.80;;;2.10;;
29934;SDS011;19905;53.370;-6.314;2023-12-20T05:57:14;12.75;;;1.90;;
29934;SDS011;19905;53.370;-6.314;2023-12-20T05:59:44;20.02;;;1.92;;
29934;SDS011;19905;53.370;-6.314;2023-12-20T06:02:12;12.05;;;1.67;;
29934;SDS011;19905;53.370;-6.314;2023-12-20T06:04:42;14.32;;;1.92;;
29934;SDS011;19905;53.370;-6.314;2023-12-20T06:07:11;15.95;;;2.08;;
29934;SDS011;19905;53.370;-6.314;2023-12-20T06:09:40;14.45;;;1.65;;
29934;SDS011;19905;53.370;-6.314;2023-12-20T06:12:09;9.70;;;1.35;;
29934;SDS011;19905;53.370;-6.314;2023-12-20T06:14:37;13.52;;;1.63;;
29934;SDS011;19905;53.370;-6.314;2023-12-20T06:17:07;15.52;;;1.83;;
29934;SDS011;19905;53.370;-6.314;2023-12-20T06:19:36;14.95;;;1.77;;
29934;SDS011;19905;53.370;-6.314;2023-12-20T06:22:05;18.92;;;2.17;;
29934;SDS011;19905;53.370;-6.314;2023-12-20T06:24:34;18.90;;;1.80;;
29934;SDS011;19905;53.370;-6.314;2023-12-20T06:27:02;16.48;;;1.90;;
29934;SDS011;19905;53.370;-6.314;2023-12-20T06:29:31;14.60;;;2.05;;
29934;SDS011;19905;53.370;-6.314;2023-12-20T06:31:59;11.40;;;1.85;;
29934;SDS011;19905;53.370;-6.314;2023-12-20T06:34:29;16.30;;;2.10;;
29934;SDS011;19905;53.370;-6.314;2023-12-20T06:37:03;19.15;;;2.45;;
29934;SDS011;19905;53.370;-6.314;2023-12-20T06:39:32;14.13;;;2.45;;
29934;SDS011;19905;53.370;-6.314;2023-12-20T06:42:02;10.90;;;2.30;;
29934;SDS011;19905;53.370;-6.314;2023-12-20T06:44:30;15.73;;;2.47;;
29934;SDS011;19905;53.370;-6.314;2023-12-20T06:47:00;12.40;;;2.15;;
29934;SDS011;19905;53.370;-6.314;2023-12-20T06:49:30;11.90;;;2.25;;
29934;SDS011;19905;53.370;-6.314;2023-12-20T06:51:59;9.60;;;1.98;;
29934;SDS011;19905;53.370;-6.314;2023-12-20T06:54:28;19.85;;;2.67;;
29934;SDS011;19905;53.370;-6.314;2023-12-20T06:56:56;16.83;;;2.15;;
29934;SDS011;19905;53.370;-6.314;2023-12-20T06:59:24;12.38;;;2.00;;
29934;SDS011;19905;53.370;-6.314;2023-12-20T07:01:53;12.05;;;2.00;;
29934;SDS011;19905;53.370;-6.314;2023-12-20T07:04:21;12.95;;;1.73;;
29934;SDS011;19905;53.370;-6.314;2023-12-20T07:06:51;15.02;;;2.20;;
29934;SDS011;19905;53.370;-6.314;2023-12-20T07:09:25;11.63;;;1.80;;
29934;SDS011;19905;53.370;-6.314;2023-12-20T07:11:53;11.48;;;2.30;;
29934;SDS011;19905;53.370;-6.314;2023-12-20T07:14:21;9.35;;;2.03;;
29934;SDS011;19905;53.370;-6.314;2023-12-20T07:16:51;11.13;;;2.08;;
29934;SDS011;19905;53.370;-6.314;2023-12-20T07:19:21;12.93;;;2.03;;
29934;SDS011;19905;53.370;-6.314;2023-12-20T07:21:50;7.53;;;1.70;;
29934;SDS011;19905;53.370;-6.314;2023-12-20T07:24:21;9.40;;;1.88;;
29934;SDS011;19905;53.370;-6.314;2023-12-20T07:26:50;8.07;;;1.80;;
29934;SDS011;19905;53.370;-6.314;2023-12-20T07:29:18;5.88;;;1.20;;
29934;SDS011;19905;53.370;-6.314;2023-12-20T07:31:46;6.22;;;1.27;;
29934;SDS011;19905;53.370;-6.314;2023-12-20T07:34:17;6.95;;;1.33;;
29934;SDS011;19905;53.370;-6.314;2023-12-20T07:36:45;8.30;;;1.38;;
29934;SDS011;19905;53.370;-6.314;2023-12-20T07:39:14;6.65;;;1.50;;
29934;SDS011;19905;53.370;-6.314;2023-12-20T07:41:45;12.70;;;1.88;;
29934;SDS011;19905;53.370;-6.314;2023-12-20T07:44:13;9.45;;;1.88;;
29934;SDS011;19905;53.370;-6.314;2023-12-20T07:46:43;12.70;;;2.13;;
29934;SDS011;19905;53.370;-6.314;2023-12-20T07:49:11;14.52;;;2.50;;
29934;SDS011;19905;53.370;-6.314;2023-12-20T07:51:39;14.00;;;2.28;;
29934;SDS011;19905;53.370;-6.314;2023-12-20T07:54:08;16.85;;;2.80;;
29934;SDS011;19905;53.370;-6.314;2023-12-20T07:56:36;20.27;;;2.67;;
29934;SDS011;19905;53.370;-6.314;2023-12-20T07:59:08;16.50;;;2.17;;
29934;SDS011;19905;53.370;-6.314;2023-12-20T08:01:51;15.40;;;2.58;;
29934;SDS011;19905;53.370;-6.314;2023-12-20T08:04:21;25.17;;;3.05;;
29934;SDS011;19905;53.370;-6.314;2023-12-20T08:06:50;21.65;;;2.50;;
29934;SDS011;19905;53.370;-6.314;2023-12-20T08:09:20;19.05;;;2.65;;
29934;SDS011;19905;53.370;-6.314;2023-12-20T08:11:48;17.58;;;2.85;;
29934;SDS011;19905;53.370;-6.314;2023-12-20T08:14:18;14.85;;;2.40;;
29934;SDS011;19905;53.370;-6.314;2023-12-20T08:16:46;23.92;;;3.65;;
29934;SDS011;19905;53.370;-6.314;2023-12-20T08:19:14;23.75;;;3.25;;
29934;SDS011;19905;53.370;-6.314;2023-12-20T08:21:42;19.92;;;3.05;;
29934;SDS011;19905;53.370;-6.314;2023-12-20T08:24:10;20.35;;;3.10;;
29934;SDS011;19905;53.370;-6.314;2023-12-20T08:26:39;18.27;;;2.88;;
29934;SDS011;19905;53.370;-6.314;2023-12-20T08:29:08;14.95;;;2.70;;
29934;SDS011;19905;53.370;-6.314;2023-12-20T08:31:37;21.92;;;3.20;;
29934;SDS011;19905;53.370;-6.314;2023-12-20T08:34:05;23.45;;;2.83;;
29934;SDS011;19905;53.370;-6.314;2023-12-20T08:36:35;19.85;;;2.63;;
29934;SDS011;19905;53.370;-6.314;2023-12-20T08:39:03;12.05;;;1.92;;
29934;SDS011;19905;53.370;-6.314;2023-12-20T08:41:35;12.95;;;2.17;;
29934;SDS011;19905;53.370;-6.314;2023-12-20T08:44:03;11.82;;;1.67;;
29934;SDS011;19905;53.370;-6.314;2023-12-20T08:46:32;21.48;;;2.80;;
29934;SDS011;19905;53.370;-6.314;2023-12-20T08:49:01;18.45;;;2.90;;
29934;SDS011;19905;53.370;-6.314;2023-12-20T08:51:30;17.88;;;3.10;;
29934;SDS011;19905;53.370;-6.314;2023-12-20T08:53:58;16.90;;;2.75;;
29934;SDS011;19905;53.370;-6.314;2023-12-20T08:56:31;20.95;;;3.30;;
29934;SDS011;19905;53.370;-6.314;2023-12-20T09:01:36;20.67;;;2.90;;
29934;SDS011;19905;53.370;-6.314;2023-12-20T09:04:06;22.55;;;2.67;;
29934;SDS011;19905;53.370;-6.314;2023-12-20T09:06:34;20.27;;;2.90;;
29934;SDS011;19905;53.370;-6.314;2023-12-20T09:09:03;21.42;;;2.88;;
29934;SDS011;19905;53.370;-6.314;2023-12-20T09:11:32;22.15;;;3.63;;
29934;SDS011;19905;53.370;-6.314;2023-12-20T09:14:01;28.63;;;3.70;;
29934;SDS011;19905;53.370;-6.314;2023-12-20T09:16:30;23.77;;;3.58;;
29934;SDS011;19905;53.370;-6.314;2023-12-20T09:18:58;19.35;;;3.05;;
29934;SDS011;19905;53.370;-6.314;2023-12-20T09:21:28;17.30;;;3.20;;
29934;SDS011;19905;53.370;-6.314;2023-12-20T09:23:56;19.73;;;3.00;;
29934;SDS011;19905;53.370;-6.314;2023-12-20T09:26:26;23.45;;;3.08;;
29934;SDS011;19905;53.370;-6.314;2023-12-20T09:28:54;22.30;;;3.63;;
29934;SDS011;19905;53.370;-6.314;2023-12-20T09:31:22;23.55;;;3.75;;
29934;SDS011;19905;53.370;-6.314;2023-12-20T09:33:52;24.98;;;3.53;;
29934;SDS011;19905;53.370;-6.314;2023-12-20T09:36:22;28.73;;;3.88;;
29934;SDS011;19905;53.370;-6.314;2023-12-20T09:38:53;28.02;;;4.55;;
29934;SDS011;19905;53.370;-6.314;2023-12-20T09:41:22;28.50;;;4.55;;
29934;SDS011;19905;53.370;-6.314;2023-12-20T09:43:55;21.60;;;3.17;;
29934;SDS011;19905;53.370;-6.314;2023-12-20T09:46:27;25.75;;;4.22;;
29934;SDS011;19905;53.370;-6.314;2023-12-20T09:48:59;23.63;;;4.07;;
29934;SDS011;19905;53.370;-6.314;2023-12-20T09:51:30;24.75;;;3.45;;
29934;SDS011;19905;53.370;-6.314;2023-12-20T09:54:00;31.27;;;3.83;;
29934;SDS011;19905;53.370;-6.314;2023-12-20T09:56:31;28.55;;;4.05;;
29934;SDS011;19905;53.370;-6.314;2023-12-20T09:59:00;20.90;;;3.63;;
29934;SDS011;19905;53.370;-6.314;2023-12-20T10:01:29;24.70;;;3.40;;
29934;SDS011;19905;53.370;-6.314;2023-12-20T10:03:58;35.20;;;4.85;;
29934;SDS011;19905;53.370;-6.314;2023-12-20T10:06:28;29.05;;;4.40;;
29934;SDS011;19905;53.370;-6.314;2023-12-20T10:08:58;29.08;;;4.97;;
29934;SDS011;19905;53.370;-6.314;2023-12-20T10:11:28;36.22;;;4.50;;
29934;SDS011;19905;53.370;-6.314;2023-12-20T10:13:58;29.25;;;5.05;;
29934;SDS011;19905;53.370;-6.314;2023-12-20T10:16:27;22.85;;;3.58;;
29934;SDS011;19905;53.370;-6.314;2023-12-20T10:18:56;34.22;;;4.65;;
29934;SDS011;19905;53.370;-6.314;2023-12-20T10:21:25;33.35;;;3.97;;
29934;SDS011;19905;53.370;-6.314;2023-12-20T10:23:53;30.70;;;5.00;;
29934;SDS011;19905;53.370;-6.314;2023-12-20T10:26:22;33.97;;;4.35;;
29934;SDS011;19905;53.370;-6.314;2023-12-20T10:28:52;30.98;;;5.18;;
29934;SDS011;19905;53.370;-6.314;2023-12-20T10:31:28;24.70;;;4.18;;
29934;SDS011;19905;53.370;-6.314;2023-12-20T10:33:59;34.28;;;5.20;;
29934;SDS011;19905;53.370;-6.314;2023-12-20T10:36:29;38.22;;;5.88;;
29934;SDS011;19905;53.370;-6.314;2023-12-20T10:38:58;34.88;;;4.47;;
29934;SDS011;19905;53.370;-6.314;2023-12-20T10:41:28;41.22;;;4.70;;
29934;SDS011;19905;53.370;-6.314;2023-12-20T10:43:59;36.35;;;5.20;;
29934;SDS011;19905;53.370;-6.314;2023-12-20T10:46:29;48.00;;;6.25;;
29934;SDS011;19905;53.370;-6.314;2023-12-20T10:49:01;40.05;;;6.45;;
29934;SDS011;19905;53.370;-6.314;2023-12-20T10:51:31;42.67;;;6.82;;
29934;SDS011;19905;53.370;-6.314;2023-12-20T10:53:59;31.23;;;5.22;;
29934;SDS011;19905;53.370;-6.314;2023-12-20T10:56:31;41.80;;;5.45;;
29934;SDS011;19905;53.370;-6.314;2023-12-20T10:59:01;45.75;;;7.63;;
29934;SDS011;19905;53.370;-6.314;2023-12-20T11:01:32;27.08;;;4.63;;
29934;SDS011;19905;53.370;-6.314;2023-12-20T11:04:02;36.53;;;4.68;;
29934;SDS011;19905;53.370;-6.314;2023-12-20T11:06:36;33.70;;;6.43;;
29934;SDS011;19905;53.370;-6.314;2023-12-20T11:09:10;40.30;;;5.65;;
29934;SDS011;19905;53.370;-6.314;2023-12-20T11:11:49;37.08;;;5.13;;
29934;SDS011;19905;53.370;-6.314;2023-12-20T11:14:23;45.55;;;7.07;;
29934;SDS011;19905;53.370;-6.314;2023-12-20T11:17:05;32.92;;;5.32;;
29934;SDS011;19905;53.370;-6.314;2023-12-20T11:19:35;46.78;;;6.25;;
29934;SDS011;19905;53.370;-6.314;2023-12-20T11:22:05;36.95;;;5.68;;
29934;SDS011;19905;53.370;-6.314;2023-12-20T11:24:34;45.40;;;6.07;;
29934;SDS011;19905;53.370;-6.314;2023-12-20T11:27:05;36.40;;;5.80;;
29934;SDS011;19905;53.370;-6.314;2023-12-20T11:29:36;35.63;;;5.45;;
29934;SDS011;19905;53.370;-6.314;2023-12-20T11:34:48;40.30;;;5.65;;
29934;SDS011;19905;53.370;-6.314;2023-12-20T11:37:18;41.42;;;5.68;;
29934;SDS011;19905;53.370;-6.314;2023-12-20T11:39:54;41.67;;;5.63;;
29934;SDS011;19905;53.370;-6.314;2023-12-20T11:42:33;46.63;;;6.15;;
29934;SDS011;19905;53.370;-6.314;2023-12-20T12:16:06;41.30;;;6.38;;
29934;SDS011;19905;53.370;-6.314;2023-12-20T12:28:55;39.63;;;6.47;;
29934;SDS011;19905;53.370;-6.314;2023-12-20T12:31:36;34.28;;;5.78;;
29934;SDS011;19905;53.370;-6.314;2023-12-20T12:34:07;43.70;;;6.47;;
29934;SDS011;19905;53.370;-6.314;2023-12-20T12:39:58;46.35;;;6.30;;
29934;SDS011;19905;53.370;-6.314;2023-12-20T12:46:26;51.10;;;6.50;;
29934;SDS011;19905;53.370;-6.314;2023-12-20T13:36:19;35.42;;;5.57;;
29934;SDS011;19905;53.370;-6.314;2023-12-20T13:39:30;37.97;;;4.80;;
29934;SDS011;19905;53.370;-6.314;2023-12-20T13:46:15;43.80;;;5.47;;
29934;SDS011;19905;53.370;-6.314;2023-12-20T13:48:44;36.17;;;5.47;;
29934;SDS011;19905;53.370;-6.314;2023-12-20T13:51:14;45.42;;;5.70;;
29934;SDS011;19905;53.370;-6.314;2023-12-20T13:53:42;43.25;;;5.50;;
29934;SDS011;19905;53.370;-6.314;2023-12-20T13:56:11;38.22;;;5.85;;
29934;SDS011;19905;53.370;-6.314;2023-12-20T13:58:39;36.53;;;5.55;;
29934;SDS011;19905;53.370;-6.314;2023-12-20T14:01:08;39.10;;;5.68;;
29934;SDS011;19905;53.370;-6.314;2023-12-20T14:03:37;33.80;;;4.63;;
29934;SDS011;19905;53.370;-6.314;2023-12-20T14:06:05;36.85;;;5.45;;
29934;SDS011;19905;53.370;-6.314;2023-12-20T14:08:35;47.70;;;6.18;;
29934;SDS011;19905;53.370;-6.314;2023-12-20T14:11:04;41.50;;;5.50;;
29934;SDS011;19905;53.370;-6.314;2023-12-20T14:13:32;46.08;;;5.78;;
29934;SDS011;19905;53.370;-6.314;2023-12-20T14:16:00;38.30;;;5.20;;
29934;SDS011;19905;53.370;-6.314;2023-12-20T14:18:30;31.65;;;4.57;;
29934;SDS011;19905;53.370;-6.314;2023-12-20T14:20:58;34.22;;;4.95;;
29934;SDS011;19905;53.370;-6.314;2023-12-20T14:23:26;31.58;;;4.43;;
29934;SDS011;19905;53.370;-6.314;2023-12-20T14:25:56;34.70;;;5.03;;
29934;SDS011;19905;53.370;-6.314;2023-12-20T14:28:26;32.88;;;4.63;;
29934;SDS011;19905;53.370;-6.314;2023-12-20T14:30:54;34.75;;;4.32;;
29934;SDS011;19905;53.370;-6.314;2023-12-20T14:33:23;31.70;;;4.60;;
29934;SDS011;19905;53.370;-6.314;2023-12-20T14:35:52;28.92;;;4.22;;
29934;SDS011;19905;53.370;-6.314;2023-12-20T14:38:20;30.70;;;4.20;;
29934;SDS011;19905;53.370;-6.314;2023-12-20T14:40:49;29.08;;;3.38;;
29934;SDS011;19905;53.370;-6.314;2023-12-20T14:43:19;34.03;;;4.55;;
29934;SDS011;19905;53.370;-6.314;2023-12-20T14:45:49;25.10;;;4.00;;
29934;SDS011;19905;53.370;-6.314;2023-12-20T14:48:18;22.15;;;3.75;;
29934;SDS011;19905;53.370;-6.314;2023-12-20T14:50:46;23.48;;;4.25;;
29934;SDS011;19905;53.370;-6.314;2023-12-20T14:53:15;23.25;;;3.60;;
29934;SDS011;19905;53.370;-6.314;2023-12-20T14:55:48;20.30;;;3.58;;
29934;SDS011;19905;53.370;-6.314;2023-12-20T14:58:19;19.17;;;3.40;;
29934;SDS011;19905;53.370;-6.314;2023-12-20T15:00:48;22.23;;;3.55;;
29934;SDS011;19905;53.370;-6.314;2023-12-20T15:03:16;25.23;;;3.92;;
29934;SDS011;19905;53.370;-6.314;2023-12-20T15:05:45;19.40;;;3.67;;
29934;SDS011;19905;53.370;-6.314;2023-12-20T15:08:14;17.38;;;2.50;;
29934;SDS011;19905;53.370;-6.314;2023-12-20T15:10:42;13.35;;;2.85;;
29934;SDS011;19905;53.370;-6.314;2023-12-20T15:13:11;18.48;;;3.67;;
29934;SDS011;19905;53.370;-6.314;2023-12-20T15:15:41;16.15;;;3.33;;
29934;SDS011;19905;53.370;-6.314;2023-12-20T15:18:12;13.57;;;2.78;;
29934;SDS011;19905;53.370;-6.314;2023-12-20T15:20:41;12.25;;;3.35;;
29934;SDS011;19905;53.370;-6.314;2023-12-20T15:23:12;18.13;;;3.10;;
29934;SDS011;19905;53.370;-6.314;2023-12-20T15:25:40;10.38;;;2.85;;
29934;SDS011;19905;53.370;-6.314;2023-12-20T15:28:09;13.25;;;3.15;;
29934;SDS011;19905;53.370;-6.314;2023-12-20T15:30:37;11.65;;;2.35;;
29934;SDS011;19905;53.370;-6.314;2023-12-20T15:33:07;13.48;;;2.38;;
29934;SDS011;19905;53.370;-6.314;2023-12-20T15:35:36;13.57;;;2.03;;
29934;SDS011;19905;53.370;-6.314;2023-12-20T15:38:04;17.42;;;2.58;;
29934;SDS011;19905;53.370;-6.314;2023-12-20T15:40:32;10.82;;;2.40;;
29934;SDS011;19905;53.370;-6.314;2023-12-20T15:43:01;10.20;;;1.77;;
29934;SDS011;19905;53.370;-6.314;2023-12-20T15:45:29;12.32;;;2.10;;
29934;SDS011;19905;53.370;-6.314;2023-12-20T15:47:57;8.43;;;2.13;;
29934;SDS011;19905;53.370;-6.314;2023-12-20T15:50:28;7.80;;;2.10;;
29934;SDS011;19905;53.370;-6.314;2023-12-20T15:52:56;7.20;;;1.92;;
29934;SDS011;19905;53.370;-6.314;2023-12-20T15:55:25;10.93;;;3.78;;
29934;SDS011;19905;53.370;-6.314;2023-12-20T15:57:53;9.93;;;2.80;;
29934;SDS011;19905;53.370;-6.314;2023-12-20T16:00:23;13.38;;;4.28;;
29934;SDS011;19905;53.370;-6.314;2023-12-20T16:02:52;8.95;;;2.92;;
29934;SDS011;19905;53.370;-6.314;2023-12-20T16:05:21;7.25;;;2.10;;
29934;SDS011;19905;53.370;-6.314;2023-12-20T16:07:51;10.15;;;2.17;;
29934;SDS011;19905;53.370;-6.314;2023-12-20T16:10:19;8.90;;;2.50;;
29934;SDS011;19905;53.370;-6.314;2023-12-20T16:12:50;9.35;;;1.90;;
29934;SDS011;19905;53.370;-6.314;2023-12-20T16:15:19;11.32;;;3.17;;
29934;SDS011;19905;53.370;-6.314;2023-12-20T16:17:47;7.00;;;1.92;;
29934;SDS011;19905;53.370;-6.314;2023-12-20T16:20:16;5.30;;;1.83;;
29934;SDS011;19905;53.370;-6.314;2023-12-20T16:22:45;6.15;;;2.08;;
29934;SDS011;19905;53.370;-6.314;2023-12-20T16:25:14;8.63;;;1.98;;
29934;SDS011;19905;53.370;-6.314;2023-12-20T16:27:43;10.35;;;3.03;;
29934;SDS011;19905;53.370;-6.314;2023-12-20T16:30:13;9.57;;;2.55;;
29934;SDS011;19905;53.370;-6.314;2023-12-20T16:32:42;9.63;;;4.00;;
29934;SDS011;19905;53.370;-6.314;2023-12-20T16:35:10;7.75;;;3.83;;
29934;SDS011;19905;53.370;-6.314;2023-12-20T16:37:38;11.55;;;2.45;;
29934;SDS011;19905;53.370;-6.314;2023-12-20T16:40:07;10.82;;;1.98;;
29934;SDS011;19905;53.370;-6.314;2023-12-20T16:42:37;6.00;;;2.08;;